sensor_id;sensor_type;location;lat;lon;timestamp;temperature;humidity
21992;DHT22;11160;51.576;0.194;2022-08-24T00:00:33;25.00;82.90
21992;DHT22;11160;51.576;0.194;2022-08-24T00:03:01;25.00;82.90
21992;DHT22;11160;51.576;0.194;2022-08-24T00:05:30;25.00;83.00
21992;DHT22;11160;51.576;0.194;2022-08-24T00:07:57;25.00;83.00
21992;DHT22;11160;51.576;0.194;2022-08-24T00:10:24;25.00;83.00
21992;DHT22;11160;51.576;0.194;2022-08-24T00:12:52;25.00;83.20
21992;DHT22;11160;51.576;0.194;2022-08-24T00:15:20;25.00;83.10
21992;DHT22;11160;51.576;0.194;2022-08-24T00:17:49;24.90;83.10
21992;DHT22;11160;51.576;0.194;2022-08-24T00:20:16;24.90;83.40
21992;DHT22;11160;51.576;0.194;2022-08-24T00:22:43;24.90;83.40
21992;DHT22;11160;51.576;0.194;2022-08-24T00:25:12;24.90;83.40
21992;DHT22;11160;51.576;0.194;2022-08-24T00:27:40;24.90;83.40
21992;DHT22;11160;51.576;0.194;2022-08-24T00:30:10;24.90;83.40
21992;DHT22;11160;51.576;0.194;2022-08-24T00:32:38;24.80;83.60
21992;DHT22;11160;51.576;0.194;2022-08-24T00:35:06;24.90;84.30
21992;DHT22;11160;51.576;0.194;2022-08-24T00:37:35;24.80;83.50
21992;DHT22;11160;51.576;0.194;2022-08-24T00:40:09;24.80;83.50
21992;DHT22;11160;51.576;0.194;2022-08-24T00:42:39;24.80;83.80
21992;DHT22;11160;51.576;0.194;2022-08-24T00:45:09;24.80;83.50
21992;DHT22;11160;51.576;0.194;2022-08-24T00:47:49;24.80;83.60
21992;DHT22;11160;51.576;0.194;2022-08-24T00:50:39;24.80;84.00
21992;DHT22;11160;51.576;0.194;2022-08-24T00:53:15;24.80;83.90
21992;DHT22;11160;51.576;0.194;2022-08-24T00:55:52;24.80;84.20
21992;DHT22;11160;51.576;0.194;2022-08-24T00:58:29;24.80;84.10
21992;DHT22;11160;51.576;0.194;2022-08-24T01:00:59;24.80;84.10
21992;DHT22;11160;51.576;0.194;2022-08-24T01:03:29;24.70;83.90
21992;DHT22;11160;51.576;0.194;2022-08-24T01:05:58;24.70;83.90
21992;DHT22;11160;51.576;0.194;2022-08-24T01:08:26;24.70;83.90
21992;DHT22;11160;51.576;0.194;2022-08-24T01:11:06;24.70;84.00
21992;DHT22;11160;51.576;0.194;2022-08-24T01:13:41;24.70;84.20
21992;DHT22;11160;51.576;0.194;2022-08-24T01:16:10;24.70;84.30
21992;DHT22;11160;51.576;0.194;2022-08-24T01:18:39;24.70;84.40
21992;DHT22;11160;51.576;0.194;2022-08-24T01:21:18;24.70;84.40
21992;DHT22;11160;51.576;0.194;2022-08-24T01:23:53;24.70;84.50
21992;DHT22;11160;51.576;0.194;2022-08-24T01:26:26;24.70;84.70
21992;DHT22;11160;51.576;0.194;2022-08-24T01:28:58;24.60;84.50
21992;DHT22;11160;51.576;0.194;2022-08-24T01:31:27;24.60;84.60
21992;DHT22;11160;51.576;0.194;2022-08-24T01:33:55;24.60;84.50
21992;DHT22;11160;51.576;0.194;2022-08-24T01:36:45;24.60;84.60
21992;DHT22;11160;51.576;0.194;2022-08-24T01:39:15;24.60;85.10
21992;DHT22;11160;51.576;0.194;2022-08-24T01:41:44;24.60;84.80
21992;DHT22;11160;51.576;0.194;2022-08-24T01:44:12;24.60;84.80
21992;DHT22;11160;51.576;0.194;2022-08-24T01:46:49;24.60;84.70
21992;DHT22;11160;51.576;0.194;2022-08-24T01:49:21;24.60;85.20
21992;DHT22;11160;51.576;0.194;2022-08-24T01:51:48;24.60;84.90
21992;DHT22;11160;51.576;0.194;2022-08-24T01:54:16;24.60;84.80
21992;DHT22;11160;51.576;0.194;2022-08-24T01:56:43;24.60;84.80
21992;DHT22;11160;51.576;0.194;2022-08-24T01:59:11;24.60;85.00
21992;DHT22;11160;51.576;0.194;2022-08-24T02:01:45;24.60;85.10
21992;DHT22;11160;51.576;0.194;2022-08-24T02:04:14;24.60;85.30
21992;DHT22;11160;51.576;0.194;2022-08-24T02:06:46;24.60;85.10
21992;DHT22;11160;51.576;0.194;2022-08-24T02:09:14;24.50;85.00
21992;DHT22;11160;51.576;0.194;2022-08-24T02:11:42;24.50;85.10
21992;DHT22;11160;51.576;0.194;2022-08-24T02:14:12;24.50;85.20
21992;DHT22;11160;51.576;0.194;2022-08-24T02:16:41;24.50;85.10
21992;DHT22;11160;51.576;0.194;2022-08-24T02:19:08;24.50;85.20
21992;DHT22;11160;51.576;0.194;2022-08-24T02:21:36;24.50;85.10
21992;DHT22;11160;51.576;0.194;2022-08-24T02:24:05;24.50;85.10
21992;DHT22;11160;51.576;0.194;2022-08-24T02:26:33;24.50;85.10
21992;DHT22;11160;51.576;0.194;2022-08-24T02:29:00;24.50;85.10
21992;DHT22;11160;51.576;0.194;2022-08-24T02:31:30;24.50;85.20
21992;DHT22;11160;51.576;0.194;2022-08-24T02:33:57;24.40;85.20
21992;DHT22;11160;51.576;0.194;2022-08-24T02:36:25;24.40;85.30
21992;DHT22;11160;51.576;0.194;2022-08-24T02:38:57;24.40;85.20
21992;DHT22;11160;51.576;0.194;2022-08-24T02:41:25;24.40;85.30
21992;DHT22;11160;51.576;0.194;2022-08-24T02:43:54;24.40;85.30
21992;DHT22;11160;51.576;0.194;2022-08-24T02:46:25;24.40;85.30
21992;DHT22;11160;51.576;0.194;2022-08-24T02:48:54;24.40;85.50
21992;DHT22;11160;51.576;0.194;2022-08-24T02:51:37;24.40;85.40
21992;DHT22;11160;51.576;0.194;2022-08-24T02:54:13;24.40;85.60
21992;DHT22;11160;51.576;0.194;2022-08-24T02:56:46;24.40;85.60
21992;DHT22;11160;51.576;0.194;2022-08-24T02:59:13;24.40;85.60
21992;DHT22;11160;51.576;0.194;2022-08-24T03:01:42;24.40;85.60
21992;DHT22;11160;51.576;0.194;2022-08-24T03:04:11;24.40;85.50
21992;DHT22;11160;51.576;0.194;2022-08-24T03:06:39;24.40;85.70
21992;DHT22;11160;51.576;0.194;2022-08-24T03:09:07;24.40;85.80
21992;DHT22;11160;51.576;0.194;2022-08-24T03:11:34;24.40;85.80
21992;DHT22;11160;51.576;0.194;2022-08-24T03:14:01;24.30;85.90
21992;DHT22;11160;51.576;0.194;2022-08-24T03:16:29;24.40;86.00
21992;DHT22;11160;51.576;0.194;2022-08-24T03:18:57;24.30;86.10
21992;DHT22;11160;51.576;0.194;2022-08-24T03:21:26;24.30;87.00
21992;DHT22;11160;51.576;0.194;2022-08-24T03:23:54;24.30;86.10
21992;DHT22;11160;51.576;0.194;2022-08-24T03:26:21;24.30;86.20
21992;DHT22;11160;51.576;0.194;2022-08-24T03:28:49;24.30;86.10
21992;DHT22;11160;51.576;0.194;2022-08-24T03:31:18;24.30;86.10
21992;DHT22;11160;51.576;0.194;2022-08-24T03:33:47;24.30;86.30
21992;DHT22;11160;51.576;0.194;2022-08-24T03:36:15;24.30;86.20
21992;DHT22;11160;51.576;0.194;2022-08-24T03:38:43;24.30;86.40
21992;DHT22;11160;51.576;0.194;2022-08-24T03:41:10;24.30;86.40
21992;DHT22;11160;51.576;0.194;2022-08-24T03:43:38;24.30;86.50
21992;DHT22;11160;51.576;0.194;2022-08-24T03:46:19;24.30;86.50
21992;DHT22;11160;51.576;0.194;2022-08-24T03:48:48;24.30;86.60
21992;DHT22;11160;51.576;0.194;2022-08-24T03:51:20;24.30;86.50
21992;DHT22;11160;51.576;0.194;2022-08-24T03:53:49;24.30;86.50
21992;DHT22;11160;51.576;0.194;2022-08-24T03:56:18;24.30;86.50
21992;DHT22;11160;51.576;0.194;2022-08-24T03:58:46;24.30;86.50
21992;DHT22;11160;51.576;0.194;2022-08-24T04:01:13;24.20;86.60
21992;DHT22;11160;51.576;0.194;2022-08-24T04:03:42;24.20;86.60
21992;DHT22;11160;51.576;0.194;2022-08-24T04:06:12;24.20;86.70
21992;DHT22;11160;51.576;0.194;2022-08-24T04:08:40;24.20;86.70
21992;DHT22;11160;51.576;0.194;2022-08-24T04:11:28;24.20;86.80
21992;DHT22;11160;51.576;0.194;2022-08-24T04:13:56;24.20;87.40
21992;DHT22;11160;51.576;0.194;2022-08-24T04:16:24;24.20;86.80
21992;DHT22;11160;51.576;0.194;2022-08-24T04:19:04;24.20;86.80
21992;DHT22;11160;51.576;0.194;2022-08-24T04:21:33;24.20;87.60
21992;DHT22;11160;51.576;0.194;2022-08-24T04:24:06;24.20;87.00
21992;DHT22;11160;51.576;0.194;2022-08-24T04:26:37;24.20;87.20
21992;DHT22;11160;51.576;0.194;2022-08-24T04:29:16;24.20;86.90
21992;DHT22;11160;51.576;0.194;2022-08-24T04:31:51;24.20;87.00
21992;DHT22;11160;51.576;0.194;2022-08-24T04:34:20;24.20;87.20
21992;DHT22;11160;51.576;0.194;2022-08-24T04:36:48;24.10;87.20
21992;DHT22;11160;51.576;0.194;2022-08-24T04:39:15;24.20;87.20
21992;DHT22;11160;51.576;0.194;2022-08-24T04:41:45;24.10;87.20
21992;DHT22;11160;51.576;0.194;2022-08-24T04:44:13;24.10;87.10
21992;DHT22;11160;51.576;0.194;2022-08-24T04:46:40;24.10;87.30
21992;DHT22;11160;51.576;0.194;2022-08-24T04:49:08;24.10;87.40
21992;DHT22;11160;51.576;0.194;2022-08-24T04:51:36;24.10;87.40
21992;DHT22;11160;51.576;0.194;2022-08-24T04:54:06;24.10;87.50
21992;DHT22;11160;51.576;0.194;2022-08-24T04:56:34;24.10;87.50
21992;DHT22;11160;51.576;0.194;2022-08-24T04:59:02;24.10;87.50
21992;DHT22;11160;51.576;0.194;2022-08-24T05:01:33;24.10;87.50
21992;DHT22;11160;51.576;0.194;2022-08-24T05:04:03;24.10;87.50
21992;DHT22;11160;51.576;0.194;2022-08-24T05:06:31;24.10;87.60
21992;DHT22;11160;51.576;0.194;2022-08-24T05:09:00;24.10;87.70
21992;DHT22;11160;51.576;0.194;2022-08-24T05:11:27;24.10;87.80
21992;DHT22;11160;51.576;0.194;2022-08-24T05:13:56;24.10;87.80
21992;DHT22;11160;51.576;0.194;2022-08-24T05:16:24;24.10;87.70
21992;DHT22;11160;51.576;0.194;2022-08-24T05:18:53;24.10;87.80
21992;DHT22;11160;51.576;0.194;2022-08-24T05:21:23;24.10;87.90
21992;DHT22;11160;51.576;0.194;2022-08-24T05:23:53;24.10;88.00
21992;DHT22;11160;51.576;0.194;2022-08-24T05:26:24;24.10;87.90
21992;DHT22;11160;51.576;0.194;2022-08-24T05:28:57;24.10;88.30
21992;DHT22;11160;51.576;0.194;2022-08-24T05:31:28;24.10;88.10
21992;DHT22;11160;51.576;0.194;2022-08-24T05:33:58;24.10;88.20
21992;DHT22;11160;51.576;0.194;2022-08-24T05:36:29;24.10;88.20
21992;DHT22;11160;51.576;0.194;2022-08-24T05:38:58;24.00;88.30
21992;DHT22;11160;51.576;0.194;2022-08-24T05:41:27;24.00;88.20
21992;DHT22;11160;51.576;0.194;2022-08-24T05:44:03;24.00;88.30
21992;DHT22;11160;51.576;0.194;2022-08-24T05:46:33;24.00;87.80
21992;DHT22;11160;51.576;0.194;2022-08-24T05:49:01;24.00;87.50
21992;DHT22;11160;51.576;0.194;2022-08-24T05:51:30;24.00;88.00
21992;DHT22;11160;51.576;0.194;2022-08-24T05:54:02;24.00;88.60
21992;DHT22;11160;51.576;0.194;2022-08-24T05:57:00;24.00;89.30
21992;DHT22;11160;51.576;0.194;2022-08-24T05:59:43;24.00;89.60
21992;DHT22;11160;51.576;0.194;2022-08-24T06:02:15;24.00;89.60
21992;DHT22;11160;51.576;0.194;2022-08-24T06:04:43;24.00;89.70
21992;DHT22;11160;51.576;0.194;2022-08-24T06:07:11;24.00;89.90
21992;DHT22;11160;51.576;0.194;2022-08-24T06:09:42;24.00;89.90
21992;DHT22;11160;51.576;0.194;2022-08-24T06:12:10;24.00;89.90
21992;DHT22;11160;51.576;0.194;2022-08-24T06:14:39;24.00;89.90
21992;DHT22;11160;51.576;0.194;2022-08-24T06:17:07;24.00;89.80
21992;DHT22;11160;51.576;0.194;2022-08-24T06:19:35;24.00;89.90
21992;DHT22;11160;51.576;0.194;2022-08-24T06:22:02;24.00;89.80
21992;DHT22;11160;51.576;0.194;2022-08-24T06:24:35;24.00;89.90
21992;DHT22;11160;51.576;0.194;2022-08-24T06:27:21;24.00;89.90
21992;DHT22;11160;51.576;0.194;2022-08-24T06:29:56;24.00;89.90
21992;DHT22;11160;51.576;0.194;2022-08-24T06:32:42;24.00;90.00
21992;DHT22;11160;51.576;0.194;2022-08-24T06:35:19;24.00;89.60
21992;DHT22;11160;51.576;0.194;2022-08-24T06:37:47;24.00;89.70
21992;DHT22;11160;51.576;0.194;2022-08-24T06:40:14;24.00;89.60
21992;DHT22;11160;51.576;0.194;2022-08-24T06:42:42;24.00;89.60
21992;DHT22;11160;51.576;0.194;2022-08-24T06:45:21;24.00;89.50
21992;DHT22;11160;51.576;0.194;2022-08-24T06:47:50;24.00;89.40
21992;DHT22;11160;51.576;0.194;2022-08-24T06:50:18;24.00;89.30
21992;DHT22;11160;51.576;0.194;2022-08-24T06:52:50;24.10;89.10
21992;DHT22;11160;51.576;0.194;2022-08-24T06:55:17;24.10;89.20
21992;DHT22;11160;51.576;0.194;2022-08-24T06:57:44;24.10;89.10
21992;DHT22;11160;51.576;0.194;2022-08-24T07:00:18;24.10;89.20
21992;DHT22;11160;51.576;0.194;2022-08-24T07:02:46;24.10;89.20
21992;DHT22;11160;51.576;0.194;2022-08-24T07:05:13;24.10;89.20
21992;DHT22;11160;51.576;0.194;2022-08-24T07:08:06;24.10;89.20
21992;DHT22;11160;51.576;0.194;2022-08-24T07:10:35;24.10;89.30
21992;DHT22;11160;51.576;0.194;2022-08-24T07:13:02;24.10;89.00
21992;DHT22;11160;51.576;0.194;2022-08-24T07:15:29;24.10;89.00
21992;DHT22;11160;51.576;0.194;2022-08-24T07:18:07;24.10;89.00
21992;DHT22;11160;51.576;0.194;2022-08-24T07:20:40;24.10;89.10
21992;DHT22;11160;51.576;0.194;2022-08-24T07:23:17;24.10;89.00
21992;DHT22;11160;51.576;0.194;2022-08-24T07:25:46;24.10;89.10
21992;DHT22;11160;51.576;0.194;2022-08-24T07:28:19;24.10;89.20
21992;DHT22;11160;51.576;0.194;2022-08-24T07:30:57;24.10;89.20
21992;DHT22;11160;51.576;0.194;2022-08-24T07:33:26;24.10;89.10
21992;DHT22;11160;51.576;0.194;2022-08-24T07:35:53;24.10;89.20
21992;DHT22;11160;51.576;0.194;2022-08-24T07:38:22;24.20;89.10
21992;DHT22;11160;51.576;0.194;2022-08-24T07:40:49;24.20;89.10
21992;DHT22;11160;51.576;0.194;2022-08-24T07:43:37;24.20;89.00
21992;DHT22;11160;51.576;0.194;2022-08-24T07:46:09;24.20;88.90
21992;DHT22;11160;51.576;0.194;2022-08-24T07:48:36;24.20;88.90
21992;DHT22;11160;51.576;0.194;2022-08-24T07:51:13;24.20;88.80
21992;DHT22;11160;51.576;0.194;2022-08-24T07:53:42;24.20;90.00
21992;DHT22;11160;51.576;0.194;2022-08-24T07:56:24;24.20;89.70
21992;DHT22;11160;51.576;0.194;2022-08-24T07:58:51;24.20;90.00
21992;DHT22;11160;51.576;0.194;2022-08-24T08:01:21;24.30;90.00
21992;DHT22;11160;51.576;0.194;2022-08-24T08:03:49;24.30;90.10
21992;DHT22;11160;51.576;0.194;2022-08-24T08:06:17;24.30;90.10
21992;DHT22;11160;51.576;0.194;2022-08-24T08:08:47;24.30;90.10
21992;DHT22;11160;51.576;0.194;2022-08-24T08:11:14;24.30;90.20
21992;DHT22;11160;51.576;0.194;2022-08-24T08:13:42;24.40;90.20
21992;DHT22;11160;51.576;0.194;2022-08-24T08:16:14;24.40;90.20
21992;DHT22;11160;51.576;0.194;2022-08-24T08:18:42;24.40;90.20
21992;DHT22;11160;51.576;0.194;2022-08-24T08:21:11;24.50;90.30
21992;DHT22;11160;51.576;0.194;2022-08-24T08:23:59;24.60;90.40
21992;DHT22;11160;51.576;0.194;2022-08-24T08:26:46;24.60;90.40
21992;DHT22;11160;51.576;0.194;2022-08-24T08:29:25;24.60;90.40
21992;DHT22;11160;51.576;0.194;2022-08-24T08:31:53;24.70;90.50
21992;DHT22;11160;51.576;0.194;2022-08-24T08:34:20;24.70;90.50
21992;DHT22;11160;51.576;0.194;2022-08-24T08:36:48;24.80;90.60
21992;DHT22;11160;51.576;0.194;2022-08-24T08:39:18;24.80;90.80
21992;DHT22;11160;51.576;0.194;2022-08-24T08:49:58;25.00;91.40
21992;DHT22;11160;51.576;0.194;2022-08-24T08:55:29;25.00;91.80
21992;DHT22;11160;51.576;0.194;2022-08-24T09:30:16;25.50;92.90
21992;DHT22;11160;51.576;0.194;2022-08-24T09:33:04;25.50;93.20
21992;DHT22;11160;51.576;0.194;2022-08-24T09:50:48;25.90;92.70
21992;DHT22;11160;51.576;0.194;2022-08-24T09:56:35;25.90;92.70
21992;DHT22;11160;51.576;0.194;2022-08-24T09:59:23;26.00;92.80
21992;DHT22;11160;51.576;0.194;2022-08-24T10:08:13;26.00;91.70
21992;DHT22;11160;51.576;0.194;2022-08-24T10:10:51;26.10;92.30
21992;DHT22;11160;51.576;0.194;2022-08-24T10:13:52;26.20;92.10
21992;DHT22;11160;51.576;0.194;2022-08-24T10:30:36;26.40;91.20
21992;DHT22;11160;51.576;0.194;2022-08-24T10:33:22;26.40;91.10
21992;DHT22;11160;51.576;0.194;2022-08-24T10:36:19;26.40;90.90
21992;DHT22;11160;51.576;0.194;2022-08-24T10:53:39;26.50;90.80
21992;DHT22;11160;51.576;0.194;2022-08-24T10:56:16;26.60;90.50
21992;DHT22;11160;51.576;0.194;2022-08-24T11:01:28;26.70;91.30
21992;DHT22;11160;51.576;0.194;2022-08-24T11:04:07;26.70;91.30
21992;DHT22;11160;51.576;0.194;2022-08-24T11:06:37;26.80;92.20
21992;DHT22;11160;51.576;0.194;2022-08-24T11:09:16;26.80;91.80
21992;DHT22;11160;51.576;0.194;2022-08-24T11:11:48;26.80;92.60
21992;DHT22;11160;51.576;0.194;2022-08-24T11:14:25;26.90;91.90
21992;DHT22;11160;51.576;0.194;2022-08-24T11:17:11;27.00;91.80
21992;DHT22;11160;51.576;0.194;2022-08-24T11:19:39;27.10;91.70
21992;DHT22;11160;51.576;0.194;2022-08-24T11:22:36;27.10;91.70
21992;DHT22;11160;51.576;0.194;2022-08-24T11:25:12;27.10;92.80
21992;DHT22;11160;51.576;0.194;2022-08-24T11:27:44;27.10;91.80
21992;DHT22;11160;51.576;0.194;2022-08-24T11:30:21;27.10;91.40
21992;DHT22;11160;51.576;0.194;2022-08-24T11:35:18;27.10;91.00
21992;DHT22;11160;51.576;0.194;2022-08-24T11:37:46;27.20;91.10
21992;DHT22;11160;51.576;0.194;2022-08-24T11:40:15;27.30;91.40
21992;DHT22;11160;51.576;0.194;2022-08-24T11:48:26;27.60;91.50
21992;DHT22;11160;51.576;0.194;2022-08-24T11:56:51;27.70;91.40
21992;DHT22;11160;51.576;0.194;2022-08-24T12:01:57;27.80;90.50
21992;DHT22;11160;51.576;0.194;2022-08-24T12:04:48;27.80;90.90
21992;DHT22;11160;51.576;0.194;2022-08-24T12:10:12;27.90;90.20
21992;DHT22;11160;51.576;0.194;2022-08-24T12:12:50;27.90;90.80
21992;DHT22;11160;51.576;0.194;2022-08-24T12:15:42;28.00;90.00
21992;DHT22;11160;51.576;0.194;2022-08-24T12:18:30;28.20;90.70
21992;DHT22;11160;51.576;0.194;2022-08-24T12:21:05;28.20;90.50
21992;DHT22;11160;51.576;0.194;2022-08-24T12:23:45;28.20;90.00
21992;DHT22;11160;51.576;0.194;2022-08-24T12:26:25;28.30;90.30
21992;DHT22;11160;51.576;0.194;2022-08-24T12:29:00;28.40;89.70
21992;DHT22;11160;51.576;0.194;2022-08-24T12:37:30;28.40;87.70
21992;DHT22;11160;51.576;0.194;2022-08-24T12:42:52;28.50;86.30
21992;DHT22;11160;51.576;0.194;2022-08-24T12:45:23;28.90;85.10
21992;DHT22;11160;51.576;0.194;2022-08-24T12:50:26;29.30;81.60
21992;DHT22;11160;51.576;0.194;2022-08-24T12:53:11;29.30;81.40
21992;DHT22;11160;51.576;0.194;2022-08-24T13:01:25;29.40;80.20
21992;DHT22;11160;51.576;0.194;2022-08-24T13:06:59;29.40;79.50
21992;DHT22;11160;51.576;0.194;2022-08-24T13:09:31;29.60;77.90
21992;DHT22;11160;51.576;0.194;2022-08-24T13:23:17;30.30;76.00
21992;DHT22;11160;51.576;0.194;2022-08-24T13:31:20;31.30;72.50
21992;DHT22;11160;51.576;0.194;2022-08-24T13:36:45;31.70;69.70
21992;DHT22;11160;51.576;0.194;2022-08-24T13:50:05;32.90;65.20
21992;DHT22;11160;51.576;0.194;2022-08-24T13:58:14;33.30;63.40
21992;DHT22;11160;51.576;0.194;2022-08-24T14:03:55;33.60;63.20
21992;DHT22;11160;51.576;0.194;2022-08-24T14:06:33;33.50;61.90
21992;DHT22;11160;51.576;0.194;2022-08-24T14:11:55;33.60;63.50
21992;DHT22;11160;51.576;0.194;2022-08-24T14:14:40;33.60;62.20
21992;DHT22;11160;51.576;0.194;2022-08-24T14:23:25;33.50;61.40
21992;DHT22;11160;51.576;0.194;2022-08-24T14:34:47;32.60;63.80
21992;DHT22;11160;51.576;0.194;2022-08-24T15:04:57;30.80;59.90
21992;DHT22;11160;51.576;0.194;2022-08-24T15:07:30;30.70;59.40
21992;DHT22;11160;51.576;0.194;2022-08-24T15:09:59;30.70;61.30
21992;DHT22;11160;51.576;0.194;2022-08-24T15:15:10;30.70;59.10
21992;DHT22;11160;51.576;0.194;2022-08-24T15:20:59;30.70;59.20
21992;DHT22;11160;51.576;0.194;2022-08-24T15:26:40;30.60;57.70
21992;DHT22;11160;51.576;0.194;2022-08-24T15:28:58;30.50;57.60
21992;DHT22;11160;51.576;0.194;2022-08-24T15:31:34;30.50;57.30
21992;DHT22;11160;51.576;0.194;2022-08-24T15:34:03;30.40;58.40
21992;DHT22;11160;51.576;0.194;2022-08-24T15:36:31;30.40;58.30
21992;DHT22;11160;51.576;0.194;2022-08-24T15:39:02;30.40;58.10
21992;DHT22;11160;51.576;0.194;2022-08-24T15:41:36;30.30;57.60
21992;DHT22;11160;51.576;0.194;2022-08-24T15:44:10;30.30;57.30
21992;DHT22;11160;51.576;0.194;2022-08-24T15:46:53;30.30;57.50
21992;DHT22;11160;51.576;0.194;2022-08-24T15:49:28;30.30;57.40
21992;DHT22;11160;51.576;0.194;2022-08-24T15:51:57;30.30;57.60
21992;DHT22;11160;51.576;0.194;2022-08-24T15:54:42;30.20;58.10
21992;DHT22;11160;51.576;0.194;2022-08-24T15:59:49;30.10;57.30
21992;DHT22;11160;51.576;0.194;2022-08-24T16:02:26;30.10;57.30
21992;DHT22;11160;51.576;0.194;2022-08-24T16:05:55;30.00;57.10
21992;DHT22;11160;51.576;0.194;2022-08-24T16:10:51;29.90;57.50
21992;DHT22;11160;51.576;0.194;2022-08-24T16:13:30;29.90;58.20
21992;DHT22;11160;51.576;0.194;2022-08-24T16:16:04;29.90;57.40
21992;DHT22;11160;51.576;0.194;2022-08-24T16:32:19;29.50;57.60
21992;DHT22;11160;51.576;0.194;2022-08-24T16:37:34;29.30;58.10
21992;DHT22;11160;51.576;0.194;2022-08-24T16:40:00;29.30;58.10
21992;DHT22;11160;51.576;0.194;2022-08-24T16:42:29;29.30;57.90
21992;DHT22;11160;51.576;0.194;2022-08-24T16:44:57;29.30;58.10
21992;DHT22;11160;51.576;0.194;2022-08-24T16:47:27;29.30;58.10
21992;DHT22;11160;51.576;0.194;2022-08-24T16:49:54;29.30;58.00
21992;DHT22;11160;51.576;0.194;2022-08-24T16:52:21;29.30;58.10
21992;DHT22;11160;51.576;0.194;2022-08-24T16:54:48;29.30;58.20
21992;DHT22;11160;51.576;0.194;2022-08-24T16:57:21;29.30;58.10
21992;DHT22;11160;51.576;0.194;2022-08-24T16:59:51;29.20;57.80
21992;DHT22;11160;51.576;0.194;2022-08-24T17:02:19;29.20;57.80
21992;DHT22;11160;51.576;0.194;2022-08-24T17:04:48;29.20;58.00
21992;DHT22;11160;51.576;0.194;2022-08-24T17:07:19;29.20;58.20
21992;DHT22;11160;51.576;0.194;2022-08-24T17:09:47;29.20;58.20
21992;DHT22;11160;51.576;0.194;2022-08-24T17:12:14;29.10;58.10
21992;DHT22;11160;51.576;0.194;2022-08-24T17:14:41;29.10;58.20
21992;DHT22;11160;51.576;0.194;2022-08-24T17:17:12;29.10;58.30
21992;DHT22;11160;51.576;0.194;2022-08-24T17:19:41;29.10;58.20
21992;DHT22;11160;51.576;0.194;2022-08-24T17:22:09;29.00;58.20
21992;DHT22;11160;51.576;0.194;2022-08-24T17:24:42;29.00;58.30
21992;DHT22;11160;51.576;0.194;2022-08-24T17:27:09;29.00;59.20
21992;DHT22;11160;51.576;0.194;2022-08-24T17:29:38;28.90;58.80
21992;DHT22;11160;51.576;0.194;2022-08-24T17:32:05;28.90;59.20
21992;DHT22;11160;51.576;0.194;2022-08-24T17:34:32;28.80;59.30
21992;DHT22;11160;51.576;0.194;2022-08-24T17:37:00;28.80;59.20
21992;DHT22;11160;51.576;0.194;2022-08-24T17:39:28;28.80;59.40
21992;DHT22;11160;51.576;0.194;2022-08-24T17:41:56;28.70;59.00
21992;DHT22;11160;51.576;0.194;2022-08-24T17:44:26;28.70;59.10
21992;DHT22;11160;51.576;0.194;2022-08-24T17:46:57;28.70;59.10
21992;DHT22;11160;51.576;0.194;2022-08-24T17:49:26;28.60;59.10
21992;DHT22;11160;51.576;0.194;2022-08-24T17:51:53;28.60;59.50
21992;DHT22;11160;51.576;0.194;2022-08-24T17:54:21;28.60;59.40
21992;DHT22;11160;51.576;0.194;2022-08-24T17:56:49;28.50;59.70
21992;DHT22;11160;51.576;0.194;2022-08-24T17:59:28;28.50;59.80
21992;DHT22;11160;51.576;0.194;2022-08-24T18:02:08;28.50;60.00
21992;DHT22;11160;51.576;0.194;2022-08-24T18:04:37;28.40;59.30
21992;DHT22;11160;51.576;0.194;2022-08-24T18:07:11;28.40;59.40
21992;DHT22;11160;51.576;0.194;2022-08-24T18:09:46;28.40;59.30
21992;DHT22;11160;51.576;0.194;2022-08-24T18:12:19;28.40;59.50
21992;DHT22;11160;51.576;0.194;2022-08-24T18:14:47;28.30;59.50
21992;DHT22;11160;51.576;0.194;2022-08-24T18:17:17;28.30;59.60
21992;DHT22;11160;51.576;0.194;2022-08-24T18:19:49;28.30;59.80
21992;DHT22;11160;51.576;0.194;2022-08-24T18:22:16;28.20;59.90
21992;DHT22;11160;51.576;0.194;2022-08-24T18:24:44;28.20;60.30
21992;DHT22;11160;51.576;0.194;2022-08-24T18:27:15;28.20;60.80
21992;DHT22;11160;51.576;0.194;2022-08-24T18:29:43;28.10;60.80
21992;DHT22;11160;51.576;0.194;2022-08-24T18:32:12;28.10;61.00
21992;DHT22;11160;51.576;0.194;2022-08-24T18:34:40;28.10;61.40
21992;DHT22;11160;51.576;0.194;2022-08-24T18:37:07;28.10;61.60
21992;DHT22;11160;51.576;0.194;2022-08-24T18:39:34;28.10;61.50
21992;DHT22;11160;51.576;0.194;2022-08-24T18:42:05;28.00;61.90
21992;DHT22;11160;51.576;0.194;2022-08-24T18:44:33;28.00;62.00
21992;DHT22;11160;51.576;0.194;2022-08-24T18:47:00;28.00;62.10
21992;DHT22;11160;51.576;0.194;2022-08-24T18:49:28;28.00;62.40
21992;DHT22;11160;51.576;0.194;2022-08-24T18:51:55;28.00;63.00
21992;DHT22;11160;51.576;0.194;2022-08-24T18:54:25;28.00;63.00
21992;DHT22;11160;51.576;0.194;2022-08-24T18:56:53;27.90;62.90
21992;DHT22;11160;51.576;0.194;2022-08-24T18:59:21;27.90;63.10
21992;DHT22;11160;51.576;0.194;2022-08-24T19:01:50;27.90;63.20
21992;DHT22;11160;51.576;0.194;2022-08-24T19:04:46;27.90;63.60
21992;DHT22;11160;51.576;0.194;2022-08-24T19:07:14;27.90;63.70
21992;DHT22;11160;51.576;0.194;2022-08-24T19:09:41;27.80;63.60
21992;DHT22;11160;51.576;0.194;2022-08-24T19:12:08;27.80;63.60
21992;DHT22;11160;51.576;0.194;2022-08-24T19:14:36;27.80;63.80
21992;DHT22;11160;51.576;0.194;2022-08-24T19:17:04;27.70;63.80
21992;DHT22;11160;51.576;0.194;2022-08-24T19:19:32;27.70;64.30
21992;DHT22;11160;51.576;0.194;2022-08-24T19:22:01;27.70;64.50
21992;DHT22;11160;51.576;0.194;2022-08-24T19:24:36;27.70;64.70
21992;DHT22;11160;51.576;0.194;2022-08-24T19:27:05;27.70;64.60
21992;DHT22;11160;51.576;0.194;2022-08-24T19:29:33;27.60;64.60
21992;DHT22;11160;51.576;0.194;2022-08-24T19:32:24;27.60;64.70
21992;DHT22;11160;51.576;0.194;2022-08-24T19:34:52;27.60;64.90
21992;DHT22;11160;51.576;0.194;2022-08-24T19:37:20;27.50;64.80
21992;DHT22;11160;51.576;0.194;2022-08-24T19:39:49;27.50;65.00
21992;DHT22;11160;51.576;0.194;2022-08-24T19:42:17;27.50;65.00
21992;DHT22;11160;51.576;0.194;2022-08-24T19:44:44;27.50;65.10
21992;DHT22;11160;51.576;0.194;2022-08-24T19:47:30;27.40;65.20
21992;DHT22;11160;51.576;0.194;2022-08-24T19:50:01;27.40;65.30
21992;DHT22;11160;51.576;0.194;2022-08-24T19:52:30;27.40;65.40
21992;DHT22;11160;51.576;0.194;2022-08-24T19:54:58;27.40;65.60
21992;DHT22;11160;51.576;0.194;2022-08-24T20:00:18;27.30;65.60
21992;DHT22;11160;51.576;0.194;2022-08-24T20:02:51;27.20;65.80
21992;DHT22;11160;51.576;0.194;2022-08-24T20:05:21;27.20;66.00
21992;DHT22;11160;51.576;0.194;2022-08-24T20:07:49;27.20;66.30
21992;DHT22;11160;51.576;0.194;2022-08-24T20:10:19;27.20;66.50
21992;DHT22;11160;51.576;0.194;2022-08-24T20:12:47;27.20;66.80
21992;DHT22;11160;51.576;0.194;2022-08-24T20:15:14;27.10;66.80